createdAt,value
2022-09-28T00:00:21.837Z,7.72
2022-09-28T00:03:23.605Z,7.64
2022-09-28T00:06:27.098Z,7.62
2022-09-28T00:09:28.943Z,7.59
2022-09-28T00:12:31.802Z,7.51
2022-09-28T00:15:33.875Z,7.63
2022-09-28T00:18:36.402Z,7.74
2022-09-28T00:21:39.980Z,7.55
2022-09-28T00:24:41.801Z,7.44
2022-09-28T00:27:44.115Z,7.40
2022-09-28T00:30:46.313Z,7.40
2022-09-28T00:33:53.452Z,7.36
2022-09-28T00:36:55.281Z,7.47
2022-09-28T00:39:57.123Z,7.45
2022-09-28T00:42:59.388Z,7.49
2022-09-28T00:46:10.962Z,7.52
2022-09-28T00:49:16.299Z,7.40
2022-09-28T00:52:55.148Z,7.46
2022-09-28T00:56:07.590Z,7.42
2022-09-28T00:59:09.687Z,7.39
2022-09-28T01:02:12.422Z,7.32
2022-09-28T01:05:15.069Z,7.26
2022-09-28T01:08:18.281Z,7.13
2022-09-28T01:11:20.364Z,7.00
2022-09-28T01:14:25.871Z,7.08
2022-09-28T01:17:45.084Z,7.02
2022-09-28T01:21:11.160Z,6.93
2022-09-28T01:24:13.013Z,7.07
2022-09-28T01:27:29.940Z,7.17
2022-09-28T01:30:37.652Z,7.07
2022-09-28T01:33:52.248Z,7.10
2022-09-28T01:36:56.834Z,7.05
2022-09-28T01:39:59.069Z,7.02
2022-09-28T01:43:11.669Z,7.09
2022-09-28T01:46:20.830Z,7.11
2022-09-28T01:49:27.667Z,7.00
2022-09-28T01:52:41.895Z,6.99
2022-09-28T01:55:48.190Z,6.93
2022-09-28T01:58:59.618Z,6.87
2022-09-28T02:02:08.418Z,6.89
2022-09-28T02:05:22.464Z,6.99
2022-09-28T02:08:34.523Z,7.08
2022-09-28T02:11:38.487Z,7.16
2022-09-28T02:14:41.953Z,7.07
2022-09-28T02:17:43.896Z,7.07
2022-09-28T02:20:53.337Z,6.96
2022-09-28T02:24:03.360Z,6.87
2022-09-28T02:27:16.443Z,6.90
2022-09-28T02:30:18.442Z,6.91
2022-09-28T02:33:23.789Z,6.82
2022-09-28T02:36:26.810Z,6.87
2022-09-28T02:39:28.989Z,6.63
2022-09-28T02:42:40.336Z,6.77
2022-09-28T02:46:06.873Z,6.71
2022-09-28T02:50:00.315Z,6.64
2022-09-28T02:53:17.137Z,6.66
2022-09-28T02:56:41.228Z,6.80
2022-09-28T03:00:05.722Z,6.87
2022-09-28T03:03:19.293Z,6.76
2022-09-28T03:06:46.480Z,6.80
2022-09-28T03:09:59.527Z,6.74
2022-09-28T03:13:02.996Z,6.64
2022-09-28T03:16:08.163Z,6.48
2022-09-28T03:19:12.791Z,6.43
2022-09-28T03:22:14.456Z,6.31
2022-09-28T03:25:16.491Z,6.46
2022-09-28T03:28:21.496Z,6.45
2022-09-28T03:31:24.585Z,6.46
2022-09-28T03:34:26.794Z,6.38
2022-09-28T03:37:29.110Z,6.33
2022-09-28T03:40:31.491Z,6.13
2022-09-28T03:43:33.431Z,6.18
2022-09-28T03:46:37.707Z,6.22
2022-09-28T03:49:43.886Z,6.29
2022-09-28T03:52:46.242Z,6.25
2022-09-28T03:55:48.827Z,6.11
2022-09-28T03:58:50.609Z,6.16
2022-09-28T04:01:52.951Z,6.21
2022-09-28T04:04:57.259Z,6.23
2022-09-28T04:07:59.498Z,6.31
2022-09-28T04:11:02.669Z,6.30
2022-09-28T04:14:04.869Z,6.19
2022-09-28T04:17:07.472Z,6.23
2022-09-28T04:20:10.014Z,6.39
2022-09-28T04:23:16.015Z,6.43
2022-09-28T04:26:24.300Z,6.47
2022-09-28T04:29:26.393Z,6.52
2022-09-28T04:32:31.066Z,6.62
2022-09-28T04:35:33.613Z,6.52
2022-09-28T04:38:52.237Z,6.61
2022-09-28T04:41:56.613Z,6.74
2022-09-28T04:45:00.098Z,6.78
2022-09-28T04:48:07.799Z,6.91
2022-09-28T04:51:40.155Z,6.88
2022-09-28T04:54:43.795Z,6.92
2022-09-28T04:57:46.013Z,6.96
2022-09-28T05:00:50.304Z,7.03
2022-09-28T05:04:12.278Z,7.03
2022-09-28T05:07:37.472Z,7.10
2022-09-28T05:10:44.438Z,7.10
2022-09-28T05:13:46.486Z,7.20
2022-09-28T05:16:51.510Z,7.21
2022-09-28T05:20:04.015Z,7.22
2022-09-28T05:23:09.880Z,7.27
2022-09-28T05:26:12.724Z,7.15
2022-09-28T05:29:14.782Z,7.19
2022-09-28T05:32:35.881Z,7.44
2022-09-28T05:35:52.515Z,7.35
2022-09-28T05:38:57.005Z,7.42
2022-09-28T05:42:00.106Z,7.47
2022-09-28T05:45:07.876Z,7.43
2022-09-28T05:48:11.281Z,7.67
2022-09-28T05:51:13.804Z,7.71
2022-09-28T05:54:20.243Z,7.64
2022-09-28T05:57:26.495Z,7.77
2022-09-28T06:00:30.004Z,7.97
2022-09-28T06:03:32.821Z,7.97
2022-09-28T06:06:36.810Z,7.88
2022-09-28T06:09:39.209Z,7.88
2022-09-28T06:12:55.635Z,7.89
2022-09-28T06:15:57.970Z,8.00
2022-09-28T06:19:02.304Z,8.18
2022-09-28T06:22:13.821Z,8.41
2022-09-28T06:25:30.378Z,8.61
2022-09-28T06:28:33.516Z,8.51
2022-09-28T06:31:35.735Z,8.61
2022-09-28T06:34:38.562Z,8.95
2022-09-28T06:37:41.437Z,8.77
2022-09-28T06:40:43.510Z,8.82
2022-09-28T06:43:48.147Z,8.74
2022-09-28T06:47:08.782Z,8.94
2022-09-28T06:50:33.116Z,8.98
2022-09-28T06:54:00.983Z,8.98
2022-09-28T06:57:14.282Z,8.92
2022-09-28T07:00:17.966Z,8.98
2022-09-28T07:03:23.099Z,9.18
2022-09-28T07:06:51.411Z,9.13
2022-09-28T07:10:13.322Z,8.98
2022-09-28T07:13:49.458Z,9.32
2022-09-28T07:17:12.450Z,9.92
2022-09-28T07:20:20.504Z,10.08
2022-09-28T07:23:30.965Z,10.25
2022-09-28T07:27:06.266Z,10.11
2022-09-28T07:30:34.378Z,10.26
2022-09-28T07:33:56.466Z,10.68
2022-09-28T07:37:05.383Z,10.24
2022-09-28T07:40:28.111Z,10.03
2022-09-28T07:43:30.463Z,10.39
2022-09-28T07:46:38.186Z,10.85
2022-09-28T07:49:46.915Z,11.07
2022-09-28T07:52:52.272Z,11.31
2022-09-28T07:56:09.243Z,11.06
2022-09-28T07:59:32.179Z,11.14
2022-09-28T08:03:13.849Z,11.35
2022-09-28T08:06:17.422Z,11.06
2022-09-28T08:09:20.102Z,11.29
2022-09-28T08:12:41.586Z,11.34
2022-09-28T08:16:07.689Z,11.77
2022-09-28T08:19:15.435Z,11.73
2022-09-28T08:22:19.406Z,11.71
2022-09-28T08:25:24.945Z,12.06
2022-09-28T08:28:27.375Z,12.04
2022-09-28T08:31:33.248Z,11.64
2022-09-28T08:34:49.110Z,11.71
2022-09-28T08:37:59.501Z,12.44
2022-09-28T08:41:41.439Z,11.83
2022-09-28T08:44:58.127Z,13.03
2022-09-28T08:48:42.034Z,12.81
2022-09-28T08:52:15.201Z,12.75
2022-09-28T08:55:36.678Z,12.60
2022-09-28T08:58:44.216Z,12.48
2022-09-28T09:02:03.684Z,12.81
2022-09-28T09:05:15.448Z,13.22
2022-09-28T09:08:38.135Z,12.88
2022-09-28T09:12:02.050Z,13.52
2022-09-28T09:15:34.061Z,13.42
2022-09-28T09:18:41.863Z,13.15
2022-09-28T09:22:18.842Z,13.07
2022-09-28T09:25:39.774Z,13.21
2022-09-28T09:29:22.795Z,13.32
2022-09-28T09:32:43.963Z,14.28
2022-09-28T09:35:47.031Z,14.49
2022-09-28T09:39:29.368Z,14.19
2022-09-28T09:43:01.748Z,14.54
2022-09-28T09:46:24.541Z,14.90
2022-09-28T09:50:12.031Z,14.43
2022-09-28T09:53:38.226Z,14.67
2022-09-28T09:57:07.121Z,14.08
2022-09-28T10:00:33.199Z,14.53
2022-09-28T10:03:48.999Z,14.38
2022-09-28T10:07:02.187Z,13.99
2022-09-28T10:10:11.175Z,14.66
2022-09-28T10:13:33.535Z,14.32
2022-09-28T10:16:39.143Z,14.76
2022-09-28T10:19:47.099Z,15.05
2022-09-28T10:23:17.772Z,15.05
2022-09-28T10:26:25.446Z,15.39
2022-09-28T10:29:30.536Z,15.35
2022-09-28T10:32:50.393Z,15.56
2022-09-28T10:36:07.454Z,15.23
2022-09-28T10:39:50.844Z,15.34
2022-09-28T10:43:00.575Z,15.04
2022-09-28T10:46:07.166Z,15.17
2022-09-28T10:49:17.184Z,15.12
2022-09-28T10:52:34.585Z,14.83
2022-09-28T10:55:37.235Z,14.72
2022-09-28T10:58:42.488Z,14.38
2022-09-28T11:02:02.918Z,14.68
2022-09-28T11:05:07.252Z,15.26
2022-09-28T11:08:26.109Z,14.85
2022-09-28T11:11:31.813Z,14.94
2022-09-28T11:14:44.563Z,15.20
2022-09-28T11:17:53.014Z,14.99
2022-09-28T11:21:11.701Z,14.84
2022-09-28T11:24:25.271Z,14.92
2022-09-28T11:27:31.292Z,14.63
2022-09-28T11:30:48.564Z,14.73
2022-09-28T11:34:58.717Z,14.72
2022-09-28T11:38:17.673Z,14.44
2022-09-28T11:41:41.099Z,14.63
2022-09-28T11:44:49.673Z,14.47
2022-09-28T11:47:58.129Z,14.69
2022-09-28T11:51:09.721Z,14.52
2022-09-28T11:54:34.195Z,14.35
2022-09-28T11:57:39.349Z,14.48
2022-09-28T12:00:47.488Z,14.49
2022-09-28T12:04:01.409Z,14.92
2022-09-28T12:07:09.438Z,14.74
2022-09-28T12:10:22.958Z,14.83
2022-09-28T12:13:28.083Z,14.87
2022-09-28T12:17:05.344Z,15.08
2022-09-28T12:20:31.371Z,15.15
2022-09-28T12:23:37.714Z,15.01
2022-09-28T12:26:44.063Z,14.84
2022-09-28T12:30:21.124Z,14.88
2022-09-28T12:33:23.390Z,14.87
2022-09-28T12:36:48.022Z,14.87
2022-09-28T12:40:20.407Z,15.11
2022-09-28T12:43:33.718Z,14.94
2022-09-28T12:46:42.505Z,14.72
2022-09-28T12:50:37.466Z,14.73
2022-09-28T12:53:27.629Z,14.64
2022-09-28T12:56:42.644Z,14.65
2022-09-28T13:00:03.242Z,14.61
2022-09-28T13:03:08.495Z,14.76
2022-09-28T13:06:47.612Z,14.64
2022-09-28T13:10:14.127Z,14.73
2022-09-28T13:13:45.248Z,14.66
2022-09-28T13:17:00.632Z,14.54
2022-09-28T13:20:20.440Z,14.56
2022-09-28T13:23:35.924Z,14.56
2022-09-28T13:26:41.674Z,14.72
2022-09-28T13:29:44.137Z,14.90
2022-09-28T13:32:49.400Z,14.74
2022-09-28T13:35:52.112Z,14.85
2022-09-28T13:39:04.720Z,15.10
2022-09-28T13:42:08.543Z,15.20
2022-09-28T13:45:14.043Z,15.35
2022-09-28T13:48:54.080Z,15.37
2022-09-28T13:52:15.245Z,15.56
2022-09-28T13:55:39.563Z,15.68
2022-09-28T13:58:48.321Z,15.97
2022-09-28T14:02:25.994Z,16.03
2022-09-28T14:05:46.839Z,15.76
2022-09-28T14:09:07.386Z,15.86
2022-09-28T14:12:38.969Z,16.12
2022-09-28T14:15:45.314Z,16.28
2022-09-28T14:19:07.521Z,16.31
2022-09-28T14:22:37.707Z,16.31
2022-09-28T14:25:45.603Z,16.17
2022-09-28T14:28:57.607Z,16.18
2022-09-28T14:32:06.313Z,15.83
2022-09-28T14:35:36.971Z,15.58
2022-09-28T14:39:05.578Z,15.63
2022-09-28T14:42:10.875Z,15.62
2022-09-28T14:45:12.946Z,15.46
2022-09-28T14:48:20.059Z,15.35
2022-09-28T14:51:26.878Z,15.36
2022-09-28T14:54:49.836Z,15.21
2022-09-28T14:57:55.606Z,15.31
2022-09-28T15:01:03.195Z,15.29
2022-09-28T15:04:08.877Z,15.57
2022-09-28T15:07:19.937Z,15.62
2022-09-28T15:10:28.561Z,15.62
2022-09-28T15:13:30.938Z,15.60
2022-09-28T15:16:34.543Z,15.54
2022-09-28T15:19:57.557Z,15.49
2022-09-28T15:23:00.404Z,15.25
2022-09-28T15:26:04.695Z,15.07
2022-09-28T15:29:17.729Z,14.98
2022-09-28T15:32:24.509Z,14.89
2022-09-28T15:35:28.636Z,14.86
2022-09-28T15:38:34.469Z,14.79
2022-09-28T15:41:37.312Z,14.69
2022-09-28T15:44:40.123Z,14.59
2022-09-28T15:47:46.113Z,14.57
2022-09-28T15:51:06.261Z,14.59
2022-09-28T15:54:19.740Z,14.52
2022-09-28T15:57:37.099Z,14.51
2022-09-28T16:00:40.493Z,14.47
2022-09-28T16:03:42.759Z,14.42
2022-09-28T16:06:44.936Z,14.28
2022-09-28T16:09:59.002Z,14.35
2022-09-28T16:13:17.506Z,14.36
2022-09-28T16:16:46.706Z,14.29
2022-09-28T16:19:49.411Z,14.27
2022-09-28T16:22:53.847Z,14.24
2022-09-28T16:26:00.634Z,14.25
2022-09-28T16:29:43.070Z,14.21
2022-09-28T16:32:54.991Z,14.13
2022-09-28T16:36:05.925Z,14.13
2022-09-28T16:39:08.637Z,14.13
2022-09-28T16:42:12.061Z,14.12
2022-09-28T16:45:23.582Z,14.11
2022-09-28T16:48:28.216Z,14.07
2022-09-28T16:51:31.041Z,14.05
2022-09-28T16:54:51.660Z,14.00
2022-09-28T16:57:54.350Z,13.90
2022-09-28T17:00:56.912Z,13.97
2022-09-28T17:03:59.509Z,13.97
2022-09-28T17:07:02.113Z,13.98
2022-09-28T17:10:12.783Z,13.91
2022-09-28T17:13:15.958Z,13.93
2022-09-28T17:16:42.675Z,13.99
2022-09-28T17:19:45.830Z,14.01
2022-09-28T17:22:48.301Z,14.02
2022-09-28T17:25:50.952Z,13.90
2022-09-28T17:28:54.307Z,13.91
2022-09-28T17:31:58.202Z,13.96
2022-09-28T17:35:23.065Z,13.92
2022-09-28T17:38:22.955Z,13.92
2022-09-28T17:41:25.369Z,13.88
2022-09-28T17:44:27.760Z,13.88
2022-09-28T17:47:34.321Z,13.92
2022-09-28T17:50:46.387Z,13.92
2022-09-28T17:53:49.977Z,13.88
2022-09-28T17:56:53.748Z,13.82
2022-09-28T17:59:56.626Z,13.78
2022-09-28T18:02:59.583Z,13.81
2022-09-28T18:06:08.273Z,13.74
2022-09-28T18:09:15.158Z,13.76
2022-09-28T18:12:18.104Z,13.78
2022-09-28T18:15:20.954Z,13.82
2022-09-28T18:18:25.771Z,13.84
2022-09-28T18:21:31.983Z,13.80
2022-09-28T18:24:34.563Z,13.77
2022-09-28T18:27:38.315Z,13.78
2022-09-28T18:30:42.810Z,13.76
2022-09-28T18:33:46.233Z,13.61
2022-09-28T18:36:49.270Z,13.60
2022-09-28T18:39:51.557Z,13.47
2022-09-28T18:42:53.765Z,13.50
2022-09-28T18:45:56.873Z,13.40
2022-09-28T18:48:59.628Z,13.42
2022-09-28T18:52:03.363Z,13.43
2022-09-28T18:55:08.542Z,13.42
2022-09-28T18:58:13.229Z,13.42
2022-09-28T19:01:29.973Z,13.44
2022-09-28T19:04:33.817Z,13.48
2022-09-28T19:07:36.451Z,13.47
2022-09-28T19:10:38.965Z,13.45
2022-09-28T19:13:41.107Z,13.30
2022-09-28T19:16:44.718Z,13.22
2022-09-28T19:19:47.585Z,13.30
2022-09-28T19:22:50.809Z,13.20
2022-09-28T19:25:53.173Z,13.24
2022-09-28T19:28:58.600Z,13.28
2022-09-28T19:32:01.448Z,13.23
2022-09-28T19:35:04.547Z,13.02
2022-09-28T19:38:07.016Z,13.05
2022-09-28T19:41:13.796Z,12.81
2022-09-28T19:44:27.946Z,12.84
2022-09-28T19:47:30.408Z,12.96
2022-09-28T19:50:32.410Z,13.02
2022-09-28T19:53:37.007Z,13.14
2022-09-28T19:56:38.934Z,13.11
2022-09-28T19:59:40.953Z,12.79
2022-09-28T20:02:43.579Z,12.56
2022-09-28T20:05:48.087Z,12.41
2022-09-28T20:08:51.212Z,12.59
2022-09-28T20:11:53.326Z,12.65
2022-09-28T20:14:55.390Z,12.79
2022-09-28T20:17:58.952Z,12.89
2022-09-28T20:21:06.286Z,12.88
2022-09-28T20:24:10.924Z,12.93
2022-09-28T20:27:13.212Z,12.90
2022-09-28T20:30:15.376Z,13.06
2022-09-28T20:33:27.494Z,13.10
2022-09-28T20:36:34.204Z,12.71
2022-09-28T20:39:36.188Z,12.72
2022-09-28T20:42:38.368Z,12.87
2022-09-28T20:45:40.498Z,12.92
2022-09-28T20:48:42.457Z,12.84
2022-09-28T20:51:45.258Z,12.83
2022-09-28T20:54:47.619Z,12.91
2022-09-28T20:57:51.029Z,12.82
2022-09-28T21:00:53.184Z,12.97
2022-09-28T21:04:01.133Z,12.80
2022-09-28T21:07:03.047Z,12.78
2022-09-28T21:10:05.994Z,12.76
2022-09-28T21:13:08.939Z,12.84
2022-09-28T21:16:12.662Z,12.29
2022-09-28T21:19:14.917Z,12.34
2022-09-28T21:22:16.672Z,12.50
2022-09-28T21:25:19.062Z,12.60
2022-09-28T21:28:21.290Z,12.58
2022-09-28T21:31:28.488Z,12.60
2022-09-28T21:34:31.377Z,12.67
2022-09-28T21:37:33.595Z,12.63
2022-09-28T21:40:36.236Z,12.69
2022-09-28T21:43:39.451Z,12.83
2022-09-28T21:46:42.446Z,12.93
2022-09-28T21:49:44.296Z,12.88
2022-09-28T21:52:46.715Z,12.84
2022-09-28T21:55:53.192Z,12.83
2022-09-28T21:58:55.463Z,12.82
2022-09-28T22:01:57.325Z,12.81
2022-09-28T22:04:59.399Z,12.89
2022-09-28T22:08:02.006Z,12.92
2022-09-28T22:11:08.409Z,12.92
2022-09-28T22:14:11.017Z,12.89
2022-09-28T22:17:12.754Z,12.87
2022-09-28T22:20:15.047Z,12.82
2022-09-28T22:23:17.699Z,12.79
2022-09-28T22:26:23.559Z,12.83
2022-09-28T22:29:26.437Z,12.87
2022-09-28T22:32:28.225Z,12.85
2022-09-28T22:35:30.589Z,12.94
2022-09-28T22:38:32.847Z,12.93
2022-09-28T22:41:35.561Z,12.91
2022-09-28T22:44:48.262Z,12.87
2022-09-28T22:47:50.566Z,12.83
2022-09-28T22:50:52.390Z,12.61
2022-09-28T22:53:54.973Z,12.43
2022-09-28T22:56:56.726Z,12.39
2022-09-28T22:59:58.520Z,12.31
2022-09-28T23:03:00.304Z,12.30
2022-09-28T23:06:02.341Z,12.28
2022-09-28T23:09:04.861Z,12.27
2022-09-28T23:12:06.818Z,12.16
2022-09-28T23:15:09.411Z,12.05
2022-09-28T23:18:11.715Z,12.05
2022-09-28T23:21:15.590Z,11.98
2022-09-28T23:24:18.039Z,11.90
2022-09-28T23:27:20.583Z,11.79
2022-09-28T23:30:24.986Z,11.79
2022-09-28T23:33:27.370Z,11.64
2022-09-28T23:36:29.055Z,11.52
2022-09-28T23:39:31.409Z,11.63
2022-09-28T23:42:34.772Z,11.61
2022-09-28T23:45:37.216Z,11.44
2022-09-28T23:48:39.017Z,11.40
2022-09-28T23:51:40.751Z,11.35
2022-09-28T23:54:42.819Z,11.34
2022-09-28T23:57:44.709Z,11.34
